Time;durP1;ratioP1;P1;durP2;ratioP2;P2;SDS_P1;SDS_P2;PMS_P1;PMS_P2;Temp;Humidity;BMP_temperature;BMP_pressure;BME280_temperature;BME280_humidity;BME280_pressure;Samples;Min_cycle;Max_cycle;Signal;HPM_P1;HPM_P2
2021/05/21 00:00:27;;;;;;;4.47;2.07;;;;;;;8.95;82.64;95981.16;1053061;28;20070;-46
2021/05/21 00:00:58;;;;;;;3.80;1.90;;;;;;;8.97;82.55;95987.03;1052943;28;20012;-46
2021/05/21 00:01:29;;;;;;;4.43;2.13;;;;;;;8.97;82.63;95987.03;1053300;28;20495;-47
2021/05/21 00:02:00;;;;;;;6.13;2.30;;;;;;;8.96;82.25;95980.97;1053212;28;20027;-47
2021/05/21 00:02:30;;;;;;;4.43;2.07;;;;;;;8.91;82.36;95982.53;1053673;28;20368;-47
2021/05/21 00:03:04;;;;;;;3.93;2.30;;;;;;;8.95;82.45;95973.28;1053502;28;20020;-48
2021/05/21 00:03:34;;;;;;;4.50;2.30;;;;;;;8.95;82.17;95976.72;1053502;28;20107;-50
2021/05/21 00:04:05;;;;;;;4.63;2.50;;;;;;;8.95;82.16;95973.28;1053404;28;20051;-49
2021/05/21 00:04:35;;;;;;;4.47;2.17;;;;;;;8.95;81.96;95974.06;1053501;28;20028;-46
2021/05/21 00:05:06;;;;;;;3.77;2.20;;;;;;;8.92;82.03;95963.97;1053291;28;20028;-46
2021/05/21 00:05:36;;;;;;;3.67;2.00;;;;;;;8.92;82.24;95961.31;1052915;28;20028;-50
2021/05/21 00:06:08;;;;;;;4.60;2.20;;;;;;;8.92;82.18;95957.91;1053236;28;20047;-48
2021/05/21 00:06:38;;;;;;;5.47;2.28;;;;;;;8.93;82.76;95964.75;1053127;28;20388;-46
2021/05/21 00:07:09;;;;;;;5.17;2.27;;;;;;;8.95;82.43;95962.78;1053555;28;20054;-48
2021/05/21 00:07:39;;;;;;;4.30;2.10;;;;;;;8.95;81.93;95963.56;1053567;28;20020;-47
2021/05/21 00:08:10;;;;;;;4.00;2.10;;;;;;;8.96;82.13;95959.97;1053463;28;20352;-48
2021/05/21 00:08:40;;;;;;;5.33;2.00;;;;;;;8.92;81.98;95963.16;1053102;28;20427;-47
2021/05/21 00:09:11;;;;;;;4.70;2.37;;;;;;;8.96;82.26;95959.13;1048966;28;20626;-48
2021/05/21 00:09:41;;;;;;;5.60;2.40;;;;;;;8.92;82.26;95965.78;1049007;28;20017;-47
2021/05/21 00:10:12;;;;;;;3.90;2.10;;;;;;;8.90;82.37;95963.34;1049085;28;20024;-47
2021/05/21 00:10:43;;;;;;;7.03;2.40;;;;;;;8.93;82.53;95962.13;1053257;28;20468;-50
2021/05/21 00:11:13;;;;;;;3.73;2.10;;;;;;;8.96;81.68;95959.97;1053574;28;20023;-47
2021/05/21 00:11:44;;;;;;;4.10;2.37;;;;;;;8.94;81.79;95959.31;1053480;28;20028;-45
2021/05/21 00:12:14;;;;;;;5.07;2.60;;;;;;;8.94;81.79;95951.44;1053450;28;20024;-47
2021/05/21 00:12:44;;;;;;;4.77;2.10;;;;;;;8.92;81.94;95955.28;1053497;28;20023;-46
2021/05/21 00:13:15;;;;;;;5.47;2.37;;;;;;;8.96;81.84;95959.13;1053460;28;20024;-46
2021/05/21 00:13:46;;;;;;;4.57;2.30;;;;;;;8.94;82.14;95961.13;1053512;28;20073;-45
2021/05/21 00:14:18;;;;;;;4.17;2.30;;;;;;;8.95;82.11;95954.91;1053283;28;20035;-50
2021/05/21 00:14:48;;;;;;;4.80;2.53;;;;;;;8.97;81.99;95948.44;1053398;28;20484;-46
2021/05/21 00:15:19;;;;;;;3.87;2.10;;;;;;;8.99;81.45;95948.28;1053425;28;20031;-45
2021/05/21 00:15:49;;;;;;;4.47;2.27;;;;;;;8.98;81.60;95951.88;1057314;28;20452;-46
2021/05/21 00:16:19;;;;;;;5.87;2.20;;;;;;;8.96;82.03;95946.81;1057447;28;20100;-47
2021/05/21 00:16:50;;;;;;;5.17;2.10;;;;;;;8.95;81.77;95945.19;1053005;28;20020;-46
2021/05/21 00:17:20;;;;;;;6.00;2.30;;;;;;;8.94;81.84;95946.19;1053112;28;20024;-49
2021/05/21 00:17:51;;;;;;;4.03;2.20;;;;;;;8.94;81.57;95954.06;1048860;28;20103;-48
2021/05/21 00:18:21;;;;;;;6.87;2.10;;;;;;;8.94;82.02;95954.06;1049060;28;20031;-46
2021/05/21 00:18:52;;;;;;;4.63;2.03;;;;;;;8.92;81.73;95947.41;1053130;28;20058;-47
2021/05/21 00:19:22;;;;;;;6.30;2.47;;;;;;;8.89;82.53;95953.81;1053141;28;20093;-46
2021/05/21 00:19:52;;;;;;;7.67;2.50;;;;;;;8.90;81.61;95952.84;1053467;28;20016;-46
2021/05/21 00:20:23;;;;;;;4.33;2.30;;;;;;;8.89;82.00;95954.63;1053354;28;20032;-47
2021/05/21 00:20:53;;;;;;;5.03;2.57;;;;;;;8.87;81.85;95943.50;1053445;28;20020;-47
2021/05/21 00:21:24;;;;;;;5.93;2.23;;;;;;;8.89;82.07;95949.38;1053033;28;20024;-49
2021/05/21 00:21:54;;;;;;;3.90;2.27;;;;;;;8.88;81.95;95946.94;1053056;28;20070;-47
2021/05/21 00:22:25;;;;;;;3.73;2.27;;;;;;;8.83;82.61;95949.34;1053116;28;20476;-48
2021/05/21 00:22:56;;;;;;;6.27;2.37;;;;;;;8.81;82.66;95946.09;1053232;28;20372;-48
2021/05/21 00:23:26;;;;;;;5.60;2.30;;;;;;;8.85;82.80;95949.94;1053478;28;20142;-47
2021/05/21 00:23:56;;;;;;;4.73;2.13;;;;;;;8.82;82.14;95937.19;1053433;28;20457;-46
2021/05/21 00:24:27;;;;;;;4.87;2.60;;;;;;;8.84;82.80;95945.72;1052885;28;20024;-47
2021/05/21 00:24:57;;;;;;;4.63;2.23;;;;;;;8.78;82.87;95946.47;1053027;28;20115;-47
2021/05/21 00:25:28;;;;;;;4.97;2.60;;;;;;;8.78;82.65;95942.03;1053188;28;20081;-47
2021/05/21 00:25:58;;;;;;;5.30;2.20;;;;;;;8.80;82.64;95941.84;1053074;28;20482;-50
2021/05/21 00:26:29;;;;;;;6.60;2.40;;;;;;;8.82;82.26;95948.53;1053448;28;20448;-47
2021/05/21 00:27:00;;;;;;;3.78;2.38;;;;;;;8.82;82.62;95947.69;1053349;28;20108;-49
2021/05/21 00:27:30;;;;;;;7.87;2.83;;;;;;;8.84;82.79;95948.34;1053390;28;20026;-49
2021/05/21 00:28:00;;;;;;;5.40;2.47;;;;;;;8.85;82.36;95945.53;1053385;28;20335;-48
2021/05/21 00:28:31;;;;;;;6.57;2.50;;;;;;;8.83;82.21;95947.50;1053462;28;20462;-47
2021/05/21 00:29:02;;;;;;;4.67;2.40;;;;;;;8.84;82.18;95950.97;1053333;28;20441;-48
2021/05/21 00:29:32;;;;;;;3.72;2.20;;;;;;;8.87;81.99;95946.16;1053455;28;20503;-49
2021/05/21 00:30:04;;;;;;;5.43;2.30;;;;;;;8.87;82.61;95951.41;1053412;28;20016;-49
2021/05/21 00:30:34;;;;;;;8.70;2.42;;;;;;;8.83;82.43;95937.00;1057197;28;20022;-47
2021/05/21 00:31:05;;;;;;;5.90;2.43;;;;;;;8.80;82.85;95945.25;1057320;28;20031;-48
2021/05/21 00:31:35;;;;;;;4.00;2.30;;;;;;;8.79;82.61;95942.81;1057436;28;20031;-47
2021/05/21 00:32:06;;;;;;;5.03;2.40;;;;;;;8.82;82.70;95937.19;1057245;28;20012;-48
2021/05/21 00:32:36;;;;;;;4.80;2.10;;;;;;;8.81;82.58;95939.03;1052989;28;20041;-49
2021/05/21 00:33:07;;;;;;;5.90;2.20;;;;;;;8.82;82.69;95932.78;1053128;28;20039;-47
2021/05/21 00:33:37;;;;;;;4.33;2.20;;;;;;;8.81;82.34;95936.41;1053106;28;20024;-48
2021/05/21 00:34:08;;;;;;;4.97;2.33;;;;;;;8.73;83.08;95927.81;1053367;28;20015;-49
2021/05/21 00:34:38;;;;;;;4.13;2.30;;;;;;;8.75;82.89;95937.16;1053227;28;20024;-47
2021/05/21 00:35:09;;;;;;;6.87;2.20;;;;;;;8.76;82.79;95928.28;1053354;28;20027;-45
2021/05/21 00:35:40;;;;;;;4.22;2.28;;;;;;;8.76;82.64;95930.91;1053338;28;20029;-48
2021/05/21 00:36:10;;;;;;;4.43;2.07;;;;;;;8.71;82.62;95930.63;1053430;28;20016;-46
2021/05/21 00:36:41;;;;;;;6.27;2.27;;;;;;;8.71;82.85;95930.63;1053421;28;20055;-46
2021/05/21 00:37:11;;;;;;;5.23;2.20;;;;;;;8.72;82.99;95927.03;1053065;28;20042;-47
2021/05/21 00:37:41;;;;;;;3.60;2.10;;;;;;;8.73;82.80;95930.44;1052980;28;20016;-50
2021/05/21 00:38:12;;;;;;;5.70;2.00;;;;;;;8.73;82.94;95931.28;1048737;28;20071;-51
2021/05/21 00:38:42;;;;;;;3.47;1.90;;;;;;;8.74;82.77;95917.13;1048934;28;20024;-46
2021/05/21 00:39:13;;;;;;;4.37;2.20;;;;;;;8.68;82.47;95925.75;1053122;28;20012;-47
2021/05/21 00:39:43;;;;;;;4.23;2.13;;;;;;;8.68;83.08;95920.53;1053101;28;20020;-48
2021/05/21 00:40:14;;;;;;;4.43;2.40;;;;;;;8.68;83.35;95925.75;1053313;28;20065;-48
2021/05/21 00:40:44;;;;;;;4.37;2.00;;;;;;;8.68;83.37;95923.97;1053501;28;20020;-45
2021/05/21 00:41:15;;;;;;;4.00;2.23;;;;;;;8.64;83.71;95916.63;1053306;28;20428;-48
2021/05/21 00:41:46;;;;;;;3.40;2.00;;;;;;;8.59;83.39;95917.19;1053432;28;20161;-46
2021/05/21 00:42:16;;;;;;;4.80;2.10;;;;;;;8.62;83.54;95916.81;1053416;28;20016;-46
2021/05/21 00:42:47;;;;;;;5.97;2.50;;;;;;;8.61;83.84;95914.38;1053331;28;20043;-46
2021/05/21 00:43:17;;;;;;;4.47;2.00;;;;;;;8.63;83.25;95910.59;1053352;28;20372;-46
2021/05/21 00:43:48;;;;;;;3.50;2.00;;;;;;;8.63;83.98;95907.16;1053357;28;20449;-48
2021/05/21 00:44:18;;;;;;;4.73;2.40;;;;;;;8.58;84.47;95914.75;1057086;28;20092;-46
2021/05/21 00:44:53;;;;;;;3.90;2.23;;;;;;;8.53;84.47;95913.53;1057293;28;20438;-46
2021/05/21 00:45:23;;;;;;;6.60;2.50;;;;;;;8.53;85.18;95917.94;1057271;28;20022;-46
2021/05/21 00:45:54;;;;;;;5.00;2.20;;;;;;;8.57;84.54;95913.97;1056570;28;20023;-46
2021/05/21 00:46:24;;;;;;;3.97;2.30;;;;;;;8.58;84.47;95909.50;1053241;28;20081;-48
2021/05/21 00:46:55;;;;;;;4.27;2.20;;;;;;;8.54;84.98;95912.50;1053353;28;20448;-46
2021/05/21 00:47:26;;;;;;;5.73;2.60;;;;;;;8.58;84.91;95912.97;1053430;28;20461;-46
2021/05/21 00:47:57;;;;;;;5.88;2.60;;;;;;;8.60;84.59;95910.97;1052983;28;20012;-48
2021/05/21 00:48:27;;;;;;;4.77;1.93;;;;;;;8.60;84.65;95918.03;1053033;28;20452;-47
2021/05/21 00:48:58;;;;;;;4.03;2.37;;;;;;;8.58;84.96;95912.13;1052975;28;20468;-47
2021/05/21 00:49:28;;;;;;;3.70;2.20;;;;;;;8.54;84.93;95912.50;1053192;28;20016;-48
2021/05/21 00:49:59;;;;;;;4.83;2.63;;;;;;;8.53;85.33;95910.06;1053517;28;20449;-50
2021/05/21 00:50:29;;;;;;;6.07;2.67;;;;;;;8.52;85.36;95908.47;1053372;28;20035;-46
2021/05/21 00:50:59;;;;;;;4.60;2.63;;;;;;;8.43;86.33;95914.81;1053365;28;20027;-47
2021/05/21 00:51:30;;;;;;;4.07;2.27;;;;;;;8.43;86.27;95906.94;1053508;28;20126;-45
2021/05/21 00:52:04;;;;;;;5.80;2.90;;;;;;;8.38;87.05;95911.91;1053345;28;20020;-46
2021/05/21 00:52:35;;;;;;;4.00;2.30;;;;;;;8.42;86.49;95911.34;1053084;28;20039;-46
2021/05/21 00:53:05;;;;;;;4.18;2.38;;;;;;;8.44;86.48;95912.03;1052969;28;20019;-47
2021/05/21 00:53:36;;;;;;;4.57;2.37;;;;;;;8.38;86.90;95911.91;1052941;28;20503;-47
2021/05/21 00:54:06;;;;;;;4.93;2.40;;;;;;;8.35;86.93;95899.97;1052996;28;20009;-45
2021/05/21 00:54:36;;;;;;;4.23;2.43;;;;;;;8.32;87.57;95900.34;1044452;28;20099;-48
2021/05/21 00:55:07;;;;;;;3.80;2.47;;;;;;;8.38;87.46;95907.50;1040567;28;20085;-46
2021/05/21 00:55:38;;;;;;;4.38;2.40;;;;;;;8.39;87.54;95903.06;1040574;28;20049;-46
2021/05/21 00:56:09;;;;;;;5.37;2.40;;;;;;;8.34;87.43;95904.41;1040875;28;20017;-47
2021/05/21 00:56:39;;;;;;;7.10;2.80;;;;;;;8.35;87.39;95906.06;1048913;28;20012;-46
2021/05/21 00:57:09;;;;;;;6.17;2.70;;;;;;;8.34;87.56;95899.19;1052930;28;20062;-47
2021/05/21 00:57:43;;;;;;;6.10;2.70;;;;;;;8.31;87.73;95889.06;1052936;28;20016;-48
2021/05/21 00:58:14;;;;;;;3.88;2.40;;;;;;;8.33;87.61;95896.75;1053384;28;20503;-47
2021/05/21 00:58:44;;;;;;;6.13;2.50;;;;;;;8.26;87.94;95894.06;1053360;28;20103;-47
2021/05/21 00:59:16;;;;;;;7.00;2.73;;;;;;;8.22;88.58;95899.88;1053267;28;20019;-48
2021/05/21 00:59:47;;;;;;;4.55;2.88;;;;;;;8.26;88.14;95894.06;1053230;28;20016;-47
2021/05/21 01:00:17;;;;;;;5.40;2.73;;;;;;;8.30;88.12;95895.28;1052834;28;20477;-48
2021/05/21 01:00:49;;;;;;;4.17;2.43;;;;;;;8.31;87.74;95886.44;1052906;28;20488;-47
2021/05/21 01:01:21;;;;;;;4.07;2.50;;;;;;;8.35;87.52;95898.19;1048797;28;20082;-47
2021/05/21 01:01:51;;;;;;;5.65;2.45;;;;;;;8.35;87.75;95895.56;1049179;28;20012;-47
2021/05/21 01:02:22;;;;;;;3.90;2.33;;;;;;;8.35;87.86;95899.97;1044856;28;20095;-46
2021/05/21 01:02:52;;;;;;;4.73;2.50;;;;;;;8.33;88.30;95901.97;1044782;28;20099;-46
2021/05/21 01:03:23;;;;;;;3.50;2.50;;;;;;;8.32;87.65;95890.69;1048778;28;20017;-47
2021/05/21 01:03:53;;;;;;;4.50;2.50;;;;;;;8.27;87.96;95893.03;1048863;28;20037;-47
2021/05/21 01:04:24;;;;;;;5.57;2.50;;;;;;;8.26;87.91;95896.69;1052787;28;20042;-47
2021/05/21 01:04:54;;;;;;;5.23;3.00;;;;;;;8.29;88.01;95896.31;1048180;28;20024;-48
2021/05/21 01:05:24;;;;;;;5.57;2.30;;;;;;;8.30;88.35;95895.28;1048490;28;20024;-49
2021/05/21 01:05:55;;;;;;;4.80;2.50;;;;;;;8.31;88.12;95898.75;1048883;28;20048;-47
2021/05/21 01:06:25;;;;;;;7.40;2.90;;;;;;;8.29;88.57;95896.31;1052945;28;20016;-47
2021/05/21 01:06:56;;;;;;;5.80;2.90;;;;;;;8.32;87.87;95892.47;1052840;28;20016;-47
2021/05/21 01:07:26;;;;;;;5.13;2.70;;;;;;;8.31;88.09;95899.56;1052982;28;20025;-50
2021/05/21 01:07:57;;;;;;;4.13;2.47;;;;;;;8.26;88.43;95890.59;1052980;28;20105;-46
2021/05/21 01:08:27;;;;;;;6.20;2.53;;;;;;;8.29;88.39;95895.47;1053019;28;20027;-47
2021/05/21 01:08:58;;;;;;;5.37;2.70;;;;;;;8.32;88.33;95892.47;1053123;28;20419;-47
2021/05/21 01:09:28;;;;;;;8.57;2.60;;;;;;;8.33;88.16;95892.28;1053447;28;20380;-46
2021/05/21 01:09:59;;;;;;;6.97;2.90;;;;;;;8.33;88.76;95896.75;1053335;28;20446;-47
2021/05/21 01:10:29;;;;;;;4.60;2.73;;;;;;;8.29;88.50;95895.47;1057151;28;20011;-47
2021/05/21 01:10:59;;;;;;;4.40;2.67;;;;;;;8.31;88.33;95898.75;1052865;28;20472;-46
2021/05/21 01:11:30;;;;;;;4.20;2.50;;;;;;;8.33;88.38;95886.25;1052990;28;20486;-47
2021/05/21 01:12:01;;;;;;;5.40;2.57;;;;;;;8.31;88.28;95894.31;1052888;28;20016;-47
2021/05/21 01:12:31;;;;;;;4.17;2.53;;;;;;;8.31;88.60;95894.31;1052981;28;20030;-48
2021/05/21 01:13:02;;;;;;;3.43;2.40;;;;;;;8.26;88.30;95896.69;1053298;28;20142;-48
2021/05/21 01:13:33;;;;;;;5.53;2.70;;;;;;;8.28;88.61;95893.88;1053221;28;20163;-46
2021/05/21 01:14:03;;;;;;;4.28;2.75;;;;;;;8.23;88.93;95891.81;1053246;28;20042;-47
2021/05/21 01:14:34;;;;;;;4.67;2.27;;;;;;;8.26;88.55;95898.47;1053064;28;20440;-46
2021/05/21 01:15:05;;;;;;;3.77;2.53;;;;;;;8.26;88.47;95898.47;1053275;28;20019;-47
2021/05/21 01:15:37;;;;;;;4.82;2.58;;;;;;;8.24;88.98;95897.84;1053218;28;20046;-46
2021/05/21 01:16:07;;;;;;;5.60;2.80;;;;;;;8.27;88.80;95898.28;1053171;28;20023;-46
2021/05/21 01:16:38;;;;;;;5.10;2.73;;;;;;;8.29;88.43;95900.72;1052959;28;20020;-46
2021/05/21 01:17:09;;;;;;;4.72;2.70;;;;;;;8.31;88.33;95896.13;1052889;28;20020;-49
2021/05/21 01:17:39;;;;;;;4.53;2.70;;;;;;;8.30;88.44;95902.34;1053027;28;20016;-47
2021/05/21 01:18:10;;;;;;;3.90;2.30;;;;;;;8.27;88.14;95893.03;1052965;28;20105;-48
2021/05/21 01:18:41;;;;;;;4.20;2.40;;;;;;;8.27;88.30;95898.28;1053368;28;20527;-46
2021/05/21 01:19:11;;;;;;;4.40;2.10;;;;;;;8.26;88.45;95898.47;1053181;28;20368;-47
2021/05/21 01:19:41;;;;;;;5.70;2.50;;;;;;;8.24;88.39;95895.22;1053145;28;20016;-45
2021/05/21 01:20:12;;;;;;;5.37;2.53;;;;;;;8.24;88.28;95896.03;1053220;28;20022;-45
2021/05/21 01:20:43;;;;;;;4.32;2.20;;;;;;;8.28;88.08;95888.63;1052824;28;20012;-48
2021/05/21 01:21:13;;;;;;;4.50;2.77;;;;;;;8.26;88.89;95893.22;1052837;28;20354;-46
2021/05/21 01:21:44;;;;;;;3.90;2.40;;;;;;;8.28;88.47;95893.88;1052937;28;20463;-45
2021/05/21 01:22:14;;;;;;;4.40;2.50;;;;;;;8.26;88.52;95894.06;1052777;28;20015;-45
2021/05/21 01:22:45;;;;;;;6.80;2.30;;;;;;;8.18;88.80;95886.28;1053223;28;20013;-45
2021/05/21 01:23:15;;;;;;;4.47;2.50;;;;;;;8.24;88.75;95884.75;1053264;28;20039;-46
2021/05/21 01:23:46;;;;;;;3.70;2.43;;;;;;;8.24;88.66;95879.50;1053530;28;20467;-48
2021/05/21 01:24:16;;;;;;;4.03;2.43;;;;;;;8.23;88.53;95877.88;1053221;28;20393;-47
2021/05/21 01:24:47;;;;;;;6.47;2.50;;;;;;;8.15;88.43;95869.13;1053151;28;20062;-47
2021/05/21 01:25:17;;;;;;;5.20;2.20;;;;;;;8.17;88.76;95864.50;1053184;28;20522;-48
2021/05/21 01:25:48;;;;;;;7.17;2.60;;;;;;;8.21;88.55;95866.75;1053132;28;20523;-48
2021/05/21 01:26:18;;;;;;;5.40;2.40;;;;;;;8.15;89.30;95868.31;1052887;28;20010;-46
2021/05/21 01:26:49;;;;;;;4.40;2.50;;;;;;;8.15;88.84;95869.13;1048631;28;20046;-46
2021/05/21 01:27:19;;;;;;;5.77;2.40;;;;;;;8.10;89.03;95871.50;1048662;28;20009;-50
2021/05/21 01:27:49;;;;;;;7.23;2.50;;;;;;;8.14;89.18;95867.50;1044480;28;20033;-46
2021/05/21 01:28:20;;;;;;;3.60;2.03;;;;;;;8.16;88.79;95873.38;1048834;28;20020;-49
2021/05/21 01:28:52;;;;;;;4.70;2.27;;;;;;;8.16;88.45;95868.13;1048651;28;20040;-46
2021/05/21 01:29:22;;;;;;;3.95;2.53;;;;;;;8.17;88.69;95868.94;1048804;28;20032;-46
2021/05/21 01:29:53;;;;;;;3.33;2.10;;;;;;;8.18;88.51;95862.69;1048664;28;20047;-47
2021/05/21 01:30:24;;;;;;;6.90;2.40;;;;;;;8.18;88.67;95865.31;1048906;28;20076;-45
2021/05/21 01:30:54;;;;;;;4.70;2.27;;;;;;;8.17;88.33;95861.88;1052872;28;20466;-46
2021/05/21 01:31:25;;;;;;;5.27;2.53;;;;;;;8.13;88.76;95860.63;1048572;28;20035;-46
2021/05/21 01:31:55;;;;;;;4.50;2.30;;;;;;;8.15;88.99;95853.41;1052845;28;20028;-46
2021/05/21 01:32:26;;;;;;;4.83;2.37;;;;;;;8.17;88.66;95855.84;1052838;28;20031;-47
2021/05/21 01:32:56;;;;;;;3.87;2.37;;;;;;;8.16;89.09;95855.00;1048592;28;20074;-45
2021/05/21 01:33:27;;;;;;;5.80;2.57;;;;;;;8.19;88.43;95861.69;1048574;28;20461;-47
2021/05/21 01:33:57;;;;;;;4.03;2.30;;;;;;;8.16;88.63;95860.25;1048610;28;20016;-46
2021/05/21 01:34:28;;;;;;;5.73;2.40;;;;;;;8.18;88.76;95855.66;1040275;28;20036;-48
2021/05/21 01:34:59;;;;;;;4.90;2.58;;;;;;;8.19;88.86;95854.63;1044704;28;20024;-48
2021/05/21 01:35:29;;;;;;;3.93;2.30;;;;;;;8.19;88.70;95857.25;1040400;28;20025;-47
2021/05/21 01:36:00;;;;;;;4.33;2.27;;;;;;;8.20;88.85;95855.47;1040864;28;20385;-50
2021/05/21 01:36:30;;;;;;;6.27;2.60;;;;;;;8.19;88.17;95854.63;1048544;28;20110;-46
2021/05/21 01:37:01;;;;;;;3.40;2.20;;;;;;;8.21;88.23;95851.81;1048707;28;20115;-47
2021/05/21 01:37:31;;;;;;;4.13;2.30;;;;;;;8.18;88.58;95853.03;1053150;28;20406;-47
2021/05/21 01:38:02;;;;;;;4.60;2.40;;;;;;;8.17;88.79;95850.59;1057148;28;20741;-49
2021/05/21 01:38:32;;;;;;;7.77;2.40;;;;;;;8.17;88.48;95851.41;1056979;28;20030;-45
2021/05/21 01:39:12;;;;;;;4.87;2.13;;;;;;;8.11;89.36;95849.53;1057045;28;20028;-46
2021/05/21 01:39:43;;;;;;;3.72;2.20;;;;;;;8.09;89.58;95853.31;1055740;28;20069;-47
2021/05/21 01:40:14;;;;;;;8.07;2.73;;;;;;;8.09;89.70;95848.91;1052865;28;20039;-48
2021/05/21 01:40:44;;;;;;;4.87;2.20;;;;;;;8.05;89.32;95845.03;1052763;28;20066;-46
2021/05/21 01:41:15;;;;;;;5.47;2.40;;;;;;;8.10;89.66;95850.50;1052686;28;20024;-49
2021/05/21 01:41:45;;;;;;;4.37;2.30;;;;;;;8.07;89.30;95839.59;1048771;28;20028;-47
2021/05/21 01:42:16;;;;;;;4.37;2.43;;;;;;;8.11;89.54;95836.41;1052783;28;20028;-47
2021/05/21 01:42:46;;;;;;;3.30;2.00;;;;;;;8.13;88.88;95850.13;1048642;28;20032;-48
2021/05/21 01:43:17;;;;;;;4.20;2.20;;;;;;;8.16;88.82;95848.97;1048705;28;20032;-48
2021/05/21 01:43:47;;;;;;;6.20;2.50;;;;;;;8.15;89.09;95842.09;1052909;28;20020;-46
2021/05/21 01:44:17;;;;;;;4.40;2.17;;;;;;;8.12;89.19;95839.84;1048538;28;20091;-47
2021/05/21 01:44:50;;;;;;;7.03;2.30;;;;;;;8.14;89.50;95840.47;1052826;28;20032;-48
2021/05/21 01:45:20;;;;;;;4.60;2.17;;;;;;;8.11;89.00;95844.28;1052838;28;20125;-46
2021/05/21 01:45:51;;;;;;;5.00;2.27;;;;;;;8.13;89.12;95838.84;1053258;28;20547;-46
2021/05/21 01:46:22;;;;;;;4.67;2.20;;;;;;;8.12;89.10;95845.06;1052681;28;20020;-47
2021/05/21 01:46:52;;;;;;;4.23;2.40;;;;;;;8.09;89.35;95841.03;1052783;28;20062;-46
2021/05/21 01:47:22;;;;;;;5.37;2.20;;;;;;;8.11;88.81;95846.91;1052692;28;20020;-47
2021/05/21 01:47:53;;;;;;;6.33;2.23;;;;;;;8.09;88.94;95841.03;1052773;28;20267;-47
2021/05/21 01:48:23;;;;;;;6.37;2.87;;;;;;;8.08;89.39;95842.03;1053114;28;20069;-48
2021/05/21 01:48:54;;;;;;;4.60;2.20;;;;;;;8.07;89.24;95843.00;1053092;28;20016;-48
2021/05/21 01:49:24;;;;;;;4.17;2.20;;;;;;;8.04;89.57;95845.22;1056801;28;20376;-46
2021/05/21 01:49:55;;;;;;;4.83;2.20;;;;;;;8.04;89.58;95839.97;1057031;28;20020;-47
2021/05/21 01:50:25;;;;;;;4.07;2.07;;;;;;;8.06;89.45;95843.19;1057001;28;20022;-48
2021/05/21 01:51:02;;;;;;;4.13;2.27;;;;;;;7.96;90.16;95841.69;1052708;28;20023;-47
2021/05/21 01:51:33;;;;;;;5.30;2.10;;;;;;;7.97;90.97;95839.88;1052799;28;20016;-48
2021/05/21 01:52:04;;;;;;;3.10;2.00;;;;;;;8.00;90.36;95839.50;1052792;28;20024;-46
2021/05/21 01:52:34;;;;;;;4.43;2.07;;;;;;;8.01;90.41;95833.28;1052893;28;20012;-47
2021/05/21 01:53:05;;;;;;;4.30;2.30;;;;;;;8.03;90.25;95835.72;1052626;28;20020;-48
2021/05/21 01:53:35;;;;;;;5.23;2.50;;;;;;;8.00;90.70;95835.09;1052792;28;20081;-46
2021/05/21 01:54:12;;;;;;;4.20;2.10;;;;;;;8.00;90.02;95836.88;1052728;28;20062;-46
2021/05/21 01:54:42;;;;;;;6.25;2.35;;;;;;;8.00;90.14;95834.25;1052830;28;20458;-48
2021/05/21 01:55:13;;;;;;;3.73;2.10;;;;;;;7.98;90.04;95839.69;1048476;28;20025;-47
2021/05/21 01:55:49;;;;;;;3.90;1.97;;;;;;;7.98;90.25;95838.88;1048569;28;20021;-48
2021/05/21 01:56:20;;;;;;;3.70;1.90;;;;;;;7.98;90.10;95839.69;1045099;28;20021;-48
2021/05/21 01:56:53;;;;;;;4.47;2.57;;;;;;;7.97;89.84;95834.63;1049515;28;20013;-47
2021/05/21 01:57:23;;;;;;;3.30;2.00;;;;;;;7.98;90.04;95834.44;1052648;28;20024;-49
2021/05/21 01:57:54;;;;;;;4.93;2.30;;;;;;;7.99;90.08;95840.53;1052810;28;20047;-47
2021/05/21 01:58:24;;;;;;;4.07;2.00;;;;;;;8.01;89.79;95831.44;1053033;28;20456;-46
2021/05/21 01:58:57;;;;;;;5.10;2.50;;;;;;;8.01;90.16;95831.44;1053134;28;20024;-46
2021/05/21 01:59:27;;;;;;;6.47;2.53;;;;;;;8.03;89.83;95831.25;1053112;28;20023;-46
2021/05/21 01:59:57;;;;;;;3.33;1.90;;;;;;;8.04;89.64;95832.09;1052697;28;20103;-49
2021/05/21 02:00:28;;;;;;;3.63;2.23;;;;;;;8.00;90.15;95829.84;1052868;28;20020;-49
2021/05/21 02:00:58;;;;;;;4.17;2.20;;;;;;;8.00;90.22;95835.09;1052918;28;20023;-47
2021/05/21 02:01:29;;;;;;;4.00;1.97;;;;;;;8.00;90.19;95826.41;1052627;28;20055;-48
2021/05/21 02:01:59;;;;;;;4.90;2.20;;;;;;;8.04;90.51;95832.09;1053171;28;20423;-47
2021/05/21 02:02:30;;;;;;;5.47;2.37;;;;;;;8.01;89.84;95825.41;1053038;28;20020;-47
2021/05/21 02:03:00;;;;;;;4.13;1.90;;;;;;;8.01;89.92;95825.41;1052937;28;20414;-47
2021/05/21 02:03:31;;;;;;;3.57;2.20;;;;;;;8.05;89.50;95826.66;1048410;28;20025;-46
2021/05/21 02:04:02;;;;;;;4.93;2.37;;;;;;;8.05;89.00;95823.22;1048625;28;20480;-46
2021/05/21 02:04:35;;;;;;;4.28;1.90;;;;;;;7.99;89.63;95827.41;1048314;28;20028;-46
2021/05/21 02:05:06;;;;;;;3.40;1.88;;;;;;;8.02;89.24;95827.03;1045294;28;20029;-46
2021/05/21 02:05:36;;;;;;;4.25;2.33;;;;;;;8.03;89.21;95833.09;1052736;28;20203;-48
2021/05/21 02:06:07;;;;;;;3.80;1.90;;;;;;;8.02;89.25;95829.66;1052808;28;20106;-48
2021/05/21 02:06:38;;;;;;;3.17;2.00;;;;;;;7.98;89.51;95831.81;1048752;28;20101;-47
2021/05/21 02:07:12;;;;;;;3.85;2.10;;;;;;;7.99;89.31;95832.66;1052698;28;20115;-46
2021/05/21 02:07:44;;;;;;;3.60;1.90;;;;;;;7.95;89.88;95826.94;1052667;28;20456;-48
2021/05/21 02:08:15;;;;;;;4.13;2.22;;;;;;;7.97;89.21;95827.59;1052753;28;20016;-47
2021/05/21 02:08:45;;;;;;;6.23;2.00;;;;;;;7.98;89.48;95831.81;1052719;28;20028;-47
2021/05/21 02:09:17;;;;;;;6.37;2.10;;;;;;;7.99;89.50;95833.47;1052687;28;20048;-47
2021/05/21 02:09:51;;;;;;;8.35;2.30;;;;;;;7.98;89.01;95834.44;1052829;28;20047;-46
2021/05/21 02:10:23;;;;;;;4.18;2.20;;;;;;;7.96;89.48;95823.34;1053473;28;20385;-46
2021/05/21 02:10:53;;;;;;;3.83;2.20;;;;;;;7.97;89.06;95827.59;1056976;28;20016;-45
2021/05/21 02:11:24;;;;;;;3.50;2.17;;;;;;;8.00;89.15;95831.63;1056971;28;20016;-45
2021/05/21 02:11:54;;;;;;;3.87;2.30;;;;;;;7.96;88.69;95817.28;1056783;28;20068;-45
2021/05/21 02:12:26;;;;;;;3.77;2.20;;;;;;;7.95;89.03;95821.72;1052619;28;20052;-50
2021/05/21 02:12:56;;;;;;;4.07;2.22;;;;;;;7.99;89.41;95822.16;1052732;28;20028;-46
2021/05/21 02:13:26;;;;;;;4.57;2.20;;;;;;;7.94;89.73;95825.34;1052651;28;20012;-45
2021/05/21 02:13:57;;;;;;;5.30;2.00;;;;;;;7.96;89.28;95822.53;1052838;28;20020;-49
2021/05/21 02:14:27;;;;;;;5.03;2.10;;;;;;;7.93;89.20;95822.91;1056501;28;20022;-46
2021/05/21 02:15:00;;;;;;;6.13;2.23;;;;;;;7.93;89.50;95823.72;1053046;28;20023;-45
2021/05/21 02:15:31;;;;;;;3.78;2.03;;;;;;;7.91;88.84;95815.25;1052554;28;20023;-47
2021/05/21 02:16:01;;;;;;;4.47;2.00;;;;;;;7.95;89.05;95818.28;1052688;28;20369;-45
2021/05/21 02:16:32;;;;;;;4.13;1.90;;;;;;;7.98;88.69;95816.09;1052562;28;20043;-45
2021/05/21 02:17:02;;;;;;;3.00;1.73;;;;;;;8.00;88.70;95821.16;1052857;28;20479;-45
2021/05/21 02:17:33;;;;;;;3.73;1.90;;;;;;;7.94;88.82;95814.88;1053076;28;20031;-45
2021/05/21 02:18:03;;;;;;;4.53;2.00;;;;;;;7.97;88.42;95816.28;1052987;28;20099;-45
2021/05/21 02:18:34;;;;;;;3.90;1.90;;;;;;;7.93;88.40;95815.84;1053063;28;20016;-48
2021/05/21 02:19:04;;;;;;;5.83;2.20;;;;;;;7.92;88.67;95818.66;1053173;28;20013;-45
2021/05/21 02:19:35;;;;;;;4.27;2.30;;;;;;;7.92;88.94;95818.66;1053035;28;20016;-46
2021/05/21 02:20:06;;;;;;;3.60;2.10;;;;;;;7.94;88.77;95814.88;1052983;28;20038;-46
2021/05/21 02:20:37;;;;;;;4.00;2.00;;;;;;;7.96;88.61;95817.28;1053084;28;20023;-46
2021/05/21 02:21:07;;;;;;;5.03;2.07;;;;;;;7.95;88.46;95813.84;1053019;28;20020;-45
2021/05/21 02:21:40;;;;;;;3.80;2.10;;;;;;;7.98;88.41;95810.06;1053062;28;20476;-46
2021/05/21 02:22:11;;;;;;;3.70;1.90;;;;;;;7.98;88.31;95804.81;1052783;28;20365;-46
2021/05/21 02:22:41;;;;;;;4.43;1.90;;;;;;;7.97;88.29;95811.03;1052782;28;20023;-45
2021/05/21 02:23:12;;;;;;;3.67;2.10;;;;;;;7.97;88.32;95808.41;1048417;28;20054;-47
2021/05/21 02:23:43;;;;;;;7.47;2.30;;;;;;;7.92;88.64;95816.03;1044648;28;20013;-48
2021/05/21 02:24:14;;;;;;;3.27;2.00;;;;;;;7.94;88.71;95814.88;1047570;28;20021;-47
2021/05/21 02:24:44;;;;;;;5.80;1.93;;;;;;;7.93;88.26;95807.19;1048750;28;20013;-46
2021/05/21 02:25:15;;;;;;;3.90;1.90;;;;;;;7.94;88.68;95808.78;1048571;28;20046;-46
2021/05/21 02:25:47;;;;;;;4.07;1.90;;;;;;;7.96;88.36;95804.19;1052591;28;20027;-47
2021/05/21 02:26:18;;;;;;;3.92;2.00;;;;;;;7.93;88.86;95808.00;1052548;28;20020;-46
2021/05/21 02:26:48;;;;;;;3.75;2.08;;;;;;;7.98;88.11;95802.19;1052711;28;20016;-46